createdAt,value
2018-10-21T00:01:28.087Z,102842.22
2018-10-21T00:03:56.405Z,102842.22
2018-10-21T00:06:24.789Z,102840.22
2018-10-21T00:08:53.137Z,102836.91
2018-10-21T00:11:21.440Z,102838.25
2018-10-21T00:13:49.806Z,102837.08
2018-10-21T00:16:18.215Z,102839.23
2018-10-21T00:18:46.573Z,102838.20
2018-10-21T00:21:15.148Z,102842.02
2018-10-21T00:23:44.471Z,102844.69
2018-10-21T00:26:13.597Z,102853.47
2018-10-21T00:28:41.910Z,102848.76
2018-10-21T00:31:10.309Z,102848.94
2018-10-21T00:33:38.582Z,102848.11
2018-10-21T00:36:07.957Z,102853.45
2018-10-21T00:38:36.314Z,102853.10
2018-10-21T00:41:04.800Z,102855.59
2018-10-21T00:43:33.175Z,102855.08
2018-10-21T00:46:01.526Z,102847.81
2018-10-21T00:48:29.872Z,102851.41
2018-10-21T00:50:58.269Z,102843.81
2018-10-21T00:53:26.613Z,102839.57
2018-10-21T00:55:55.031Z,102840.07
2018-10-21T00:58:23.302Z,102843.22
2018-10-21T01:00:51.634Z,102829.47
2018-10-21T01:03:19.918Z,102829.47
2018-10-21T01:05:48.224Z,102832.28
2018-10-21T01:08:16.531Z,102824.02
2018-10-21T01:10:44.864Z,102819.40
2018-10-21T01:13:13.218Z,102816.88
2018-10-21T01:15:41.561Z,102812.36
2018-10-21T01:18:09.929Z,102805.42
2018-10-21T01:20:38.277Z,102811.59
2018-10-21T01:23:06.585Z,102805.18
2018-10-21T01:25:34.957Z,102798.21
2018-10-21T01:28:03.266Z,102793.95
2018-10-21T01:30:31.574Z,102791.10
2018-10-21T01:32:59.875Z,102793.92
2018-10-21T01:35:28.149Z,102792.59
2018-10-21T01:37:56.519Z,102788.78
2018-10-21T01:40:34.199Z,102781.31
2018-10-21T01:43:03.002Z,102784.93
2018-10-21T01:45:31.300Z,102789.25
2018-10-21T01:48:00.768Z,102787.58
2018-10-21T01:50:29.067Z,102780.16
2018-10-21T01:52:58.730Z,102777.05
2018-10-21T01:55:27.111Z,102773.41
2018-10-21T01:57:56.422Z,102767.49
2018-10-21T02:00:25.412Z,102778.38
2018-10-21T02:02:54.197Z,102777.90
2018-10-21T02:05:23.012Z,102771.45
2018-10-21T02:07:52.147Z,102779.39
2018-10-21T02:10:20.447Z,102777.25
2018-10-21T02:12:48.869Z,102777.57
2018-10-21T02:15:17.181Z,102775.92
2018-10-21T02:17:45.457Z,102782.69
2018-10-21T02:20:14.631Z,102780.13
2018-10-21T02:22:43.683Z,102773.48
2018-10-21T02:25:12.286Z,102781.04
2018-10-21T02:27:41.191Z,102777.92
2018-10-21T02:30:12.508Z,102783.91
2018-10-21T02:32:40.900Z,102786.23
2018-10-21T02:35:10.237Z,102786.37
2018-10-21T02:37:39.285Z,102791.86
2018-10-21T02:40:17.876Z,102788.09
2018-10-21T02:42:46.245Z,102789.44
2018-10-21T02:45:14.705Z,102787.62
2018-10-21T02:47:43.067Z,102792.75
2018-10-21T02:50:11.385Z,102790.56
2018-10-21T02:52:39.664Z,102788.77
2018-10-21T02:55:08.067Z,102785.80
2018-10-21T02:57:36.451Z,102782.17
2018-10-21T03:00:04.879Z,102779.20
2018-10-21T03:02:33.251Z,102782.16
2018-10-21T03:05:01.514Z,102776.69
2018-10-21T03:07:29.810Z,102779.83
2018-10-21T03:09:58.115Z,102781.13
2018-10-21T03:12:26.448Z,102776.16
2018-10-21T03:14:54.874Z,102779.29
2018-10-21T03:17:23.175Z,102780.16
2018-10-21T03:19:51.841Z,102780.45
2018-10-21T03:22:20.285Z,102775.19
2018-10-21T03:24:48.616Z,102780.16
2018-10-21T03:27:17.015Z,102787.59
2018-10-21T03:29:45.368Z,102787.77
2018-10-21T03:32:13.763Z,102788.57
2018-10-21T03:34:42.133Z,102794.34
2018-10-21T03:37:10.464Z,102786.08
2018-10-21T03:39:38.790Z,102791.69
2018-10-21T03:42:07.152Z,102796.14
2018-10-21T03:44:35.477Z,102795.31
2018-10-21T03:47:03.846Z,102803.42
2018-10-21T03:49:32.121Z,102791.50
2018-10-21T03:52:00.476Z,102796.77
2018-10-21T03:54:28.969Z,102792.63
2018-10-21T03:56:57.279Z,102796.29
2018-10-21T03:59:25.560Z,102795.64
2018-10-21T04:01:53.906Z,102798.58
2018-10-21T04:04:22.295Z,102800.05
2018-10-21T04:06:50.623Z,102798.94
2018-10-21T04:09:18.933Z,102796.29
2018-10-21T04:11:47.274Z,102794.97
2018-10-21T04:14:15.553Z,102796.59
2018-10-21T04:16:43.930Z,102801.20
2018-10-21T04:19:12.201Z,102798.45
2018-10-21T04:21:40.471Z,102797.94
2018-10-21T04:24:08.777Z,102802.87
2018-10-21T04:26:37.153Z,102799.73
2018-10-21T04:29:05.483Z,102793.30
2018-10-21T04:31:33.761Z,102789.50
2018-10-21T04:34:02.164Z,102789.83
2018-10-21T04:36:31.646Z,102793.80
2018-10-21T04:39:34.372Z,102791.30
2018-10-21T04:42:02.665Z,102783.41
2018-10-21T04:44:30.987Z,102785.91
2018-10-21T04:46:59.440Z,102787.22
2018-10-21T04:49:27.659Z,102785.26
2018-10-21T04:51:55.959Z,102782.43
2018-10-21T04:54:24.282Z,102782.11
2018-10-21T04:56:52.591Z,102777.52
2018-10-21T04:59:20.894Z,102776.17
2018-10-21T05:01:49.210Z,102774.18
2018-10-21T05:04:17.598Z,102780.44
2018-10-21T05:06:45.798Z,102772.03
2018-10-21T05:09:14.157Z,102777.19
2018-10-21T05:11:42.465Z,102774.39
2018-10-21T05:14:10.745Z,102764.98
2018-10-21T05:16:39.106Z,102765.31
2018-10-21T05:19:07.394Z,102761.65
2018-10-21T05:21:35.753Z,102761.67
2018-10-21T05:24:04.147Z,102753.73
2018-10-21T05:26:32.510Z,102759.30
2018-10-21T05:29:00.857Z,102755.52
2018-10-21T05:31:29.373Z,102756.73
2018-10-21T05:33:58.388Z,102753.91
2018-10-21T05:36:26.695Z,102752.22
2018-10-21T05:38:55.117Z,102759.83
2018-10-21T05:41:23.455Z,102757.18
2018-10-21T05:43:51.814Z,102754.06
2018-10-21T05:46:31.245Z,102750.27
2018-10-21T05:48:59.649Z,102758.05
2018-10-21T05:51:27.929Z,102751.39
2018-10-21T05:53:56.219Z,102758.16
2018-10-21T05:56:24.810Z,102760.30
2018-10-21T05:58:53.192Z,102763.45
2018-10-21T06:01:21.565Z,102764.92
2018-10-21T06:03:49.944Z,102775.33
2018-10-21T06:06:18.291Z,102777.81
2018-10-21T06:08:46.668Z,102773.22
2018-10-21T06:11:14.979Z,102781.50
2018-10-21T06:13:43.241Z,102772.75
2018-10-21T06:16:11.525Z,102783.45
2018-10-21T06:18:39.981Z,102785.09
2018-10-21T06:21:08.387Z,102789.09
2018-10-21T06:23:36.775Z,102780.64
2018-10-21T06:26:05.259Z,102782.80
2018-10-21T06:28:33.769Z,102784.80
2018-10-21T06:31:02.118Z,102781.80
2018-10-21T06:33:30.490Z,102778.84
2018-10-21T06:35:59.003Z,102786.91
2018-10-21T06:38:27.460Z,102788.07
2018-10-21T06:40:55.826Z,102786.25
2018-10-21T06:43:24.108Z,102787.12
2018-10-21T06:45:52.532Z,102787.79
2018-10-21T06:48:20.883Z,102783.97
2018-10-21T06:50:49.183Z,102786.47
2018-10-21T06:53:17.577Z,102787.12
2018-10-21T06:55:45.929Z,102786.04
2018-10-21T06:58:14.267Z,102790.16
2018-10-21T07:00:42.683Z,102789.34
2018-10-21T07:03:11.031Z,102793.97
2018-10-21T07:06:17.273Z,102796.75
2018-10-21T07:08:46.245Z,102805.53
2018-10-21T07:11:14.844Z,102804.67
2018-10-21T07:13:43.419Z,102808.30
2018-10-21T07:16:12.187Z,102809.93
2018-10-21T07:18:41.092Z,102805.00
2018-10-21T07:21:09.433Z,102805.14
2018-10-21T07:23:37.925Z,102804.66
2018-10-21T07:26:06.605Z,102811.39
2018-10-21T07:28:35.088Z,102803.11
2018-10-21T07:31:03.615Z,102804.91
2018-10-21T07:33:31.933Z,102810.21
2018-10-21T07:36:00.361Z,102812.98
2018-10-21T07:38:28.671Z,102808.52
2018-10-21T07:40:57.254Z,102809.17
2018-10-21T07:43:25.801Z,102813.61
2018-10-21T07:45:54.165Z,102813.77
2018-10-21T07:48:22.530Z,102819.33
2018-10-21T07:50:50.873Z,102817.03
2018-10-21T07:53:19.171Z,102820.33
2018-10-21T07:55:47.506Z,102818.36
2018-10-21T07:58:16.015Z,102829.09
2018-10-21T08:00:44.390Z,102823.33
2018-10-21T08:03:12.818Z,102827.77
2018-10-21T08:05:52.427Z,102821.97
2018-10-21T08:08:24.871Z,102824.82
2018-10-21T08:10:53.238Z,102816.21
2018-10-21T08:13:23.929Z,102824.65
2018-10-21T08:15:52.317Z,102821.83
2018-10-21T08:18:20.646Z,102831.22
2018-10-21T08:20:49.898Z,102830.53
2018-10-21T08:23:19.019Z,102827.48
2018-10-21T08:25:48.820Z,102838.77
2018-10-21T08:28:17.246Z,102838.62
2018-10-21T08:30:45.629Z,102835.63
2018-10-21T08:33:14.071Z,102830.51
2018-10-21T08:35:42.387Z,102841.80
2018-10-21T08:38:10.788Z,102840.59
2018-10-21T08:40:39.213Z,102839.09
2018-10-21T08:43:07.606Z,102843.45
2018-10-21T08:45:36.029Z,102841.06
2018-10-21T08:48:04.420Z,102842.06
2018-10-21T08:50:33.281Z,102837.42
2018-10-21T08:53:01.654Z,102833.25
2018-10-21T08:55:30.018Z,102830.59
2018-10-21T08:57:58.362Z,102825.27
2018-10-21T09:00:26.858Z,102828.06
2018-10-21T09:02:55.203Z,102828.50
2018-10-21T09:05:23.512Z,102826.34
2018-10-21T09:07:51.852Z,102825.70
2018-10-21T09:10:20.423Z,102823.41
2018-10-21T09:12:48.608Z,102825.73
2018-10-21T09:15:18.572Z,102823.09
2018-10-21T09:17:47.037Z,102832.83
2018-10-21T09:20:17.560Z,102827.34
2018-10-21T09:22:46.048Z,102824.16
2018-10-21T09:25:14.934Z,102821.19
2018-10-21T09:27:44.052Z,102816.68
2018-10-21T09:30:14.287Z,102814.39
2018-10-21T09:32:42.626Z,102819.00
2018-10-21T09:35:14.124Z,102817.45
2018-10-21T09:37:42.988Z,102813.58
2018-10-21T09:40:14.829Z,102810.56
2018-10-21T09:42:43.477Z,102814.18
2018-10-21T09:45:13.851Z,102808.28
2018-10-21T09:47:42.607Z,102809.30
2018-10-21T09:50:11.227Z,102806.51
2018-10-21T09:52:39.727Z,102799.14
2018-10-21T09:55:13.888Z,102799.63
2018-10-21T09:57:42.217Z,102796.66
2018-10-21T10:00:10.675Z,102798.52
2018-10-21T10:02:44.510Z,102790.52
2018-10-21T10:05:13.054Z,102789.86
2018-10-21T10:07:41.376Z,102788.80
2018-10-21T10:10:10.995Z,102791.16
2018-10-21T10:12:39.547Z,102794.81
2018-10-21T10:15:08.753Z,102789.17
2018-10-21T10:17:37.150Z,102786.67
2018-10-21T10:20:06.488Z,102787.92
2018-10-21T10:22:34.913Z,102778.32
2018-10-21T10:25:03.462Z,102771.95
2018-10-21T10:27:31.782Z,102774.34
2018-10-21T10:30:00.274Z,102766.95
2018-10-21T10:32:28.755Z,102771.00
2018-10-21T10:34:57.082Z,102759.77
2018-10-21T10:37:25.533Z,102762.55
2018-10-21T10:39:53.900Z,102764.39
2018-10-21T10:42:22.372Z,102759.91
2018-10-21T10:44:50.669Z,102760.16
2018-10-21T10:47:19.083Z,102758.83
2018-10-21T10:49:47.614Z,102758.26
2018-10-21T10:52:16.198Z,102755.26
2018-10-21T10:54:44.560Z,102759.55
2018-10-21T10:57:12.884Z,102751.30
2018-10-21T10:59:41.310Z,102749.34
2018-10-21T11:02:09.684Z,102744.36
2018-10-21T11:04:38.075Z,102737.66
2018-10-21T11:07:06.959Z,102736.17
2018-10-21T11:09:35.472Z,102730.09
2018-10-21T11:12:03.884Z,102733.16
2018-10-21T11:14:32.315Z,102734.73
2018-10-21T11:17:00.706Z,102727.78
2018-10-21T11:19:29.114Z,102719.80
2018-10-21T11:21:57.453Z,102720.64
2018-10-21T11:24:25.837Z,102710.98
2018-10-21T11:26:54.375Z,102714.47
2018-10-21T11:29:22.787Z,102712.36
2018-10-21T11:31:51.263Z,102714.29
2018-10-21T11:34:19.761Z,102709.59
2018-10-21T11:36:48.301Z,102706.82
2018-10-21T11:39:16.589Z,102710.48
2018-10-21T11:41:45.018Z,102705.70
2018-10-21T11:44:13.393Z,102705.16
2018-10-21T11:46:42.104Z,102705.16
2018-10-21T11:49:10.464Z,102702.61
2018-10-21T11:51:38.794Z,102701.79
2018-10-21T11:54:07.191Z,102705.86
2018-10-21T11:56:37.659Z,102702.34
2018-10-21T11:59:07.304Z,102705.52
2018-10-21T12:01:35.626Z,102693.41
2018-10-21T12:04:04.144Z,102691.66
2018-10-21T12:06:32.575Z,102693.41
2018-10-21T12:09:00.898Z,102693.91
2018-10-21T12:11:29.303Z,102689.22
2018-10-21T12:13:57.665Z,102683.97
2018-10-21T12:16:26.093Z,102683.77
2018-10-21T12:18:54.432Z,102684.59
2018-10-21T12:21:22.865Z,102679.47
2018-10-21T12:23:51.307Z,102677.81
2018-10-21T12:26:19.650Z,102679.20
2018-10-21T12:28:48.031Z,102676.03
2018-10-21T12:31:16.428Z,102672.15
2018-10-21T12:33:46.733Z,102674.77
2018-10-21T12:36:16.258Z,102683.17
2018-10-21T12:38:44.694Z,102678.47
2018-10-21T12:41:13.507Z,102688.00
2018-10-21T12:43:42.472Z,102684.14
2018-10-21T12:46:11.172Z,102679.84
2018-10-21T12:48:39.486Z,102675.54
2018-10-21T12:51:08.106Z,102673.70
2018-10-21T12:53:36.691Z,102672.17
2018-10-21T12:56:05.262Z,102672.48
2018-10-21T12:58:33.651Z,102665.52
2018-10-21T13:01:02.140Z,102666.66
2018-10-21T13:03:30.474Z,102656.89
2018-10-21T13:05:58.960Z,102654.38
2018-10-21T13:08:27.350Z,102657.86
2018-10-21T13:10:55.669Z,102657.75
2018-10-21T13:13:24.446Z,102655.76
2018-10-21T13:15:52.798Z,102645.32
2018-10-21T13:18:21.229Z,102651.50
2018-10-21T13:20:49.921Z,102645.14
2018-10-21T13:23:18.959Z,102646.67
2018-10-21T13:25:47.578Z,102648.42
2018-10-21T13:28:16.080Z,102641.35
2018-10-21T13:30:44.460Z,102638.69
2018-10-21T13:33:12.789Z,102640.79
2018-10-21T13:35:41.330Z,102635.64
2018-10-21T13:38:09.934Z,102638.50
2018-10-21T13:40:38.319Z,102628.83
2018-10-21T13:43:07.118Z,102628.58
2018-10-21T13:45:35.640Z,102631.43
2018-10-21T13:48:04.124Z,102627.80
2018-10-21T13:50:32.483Z,102626.63
2018-10-21T13:53:00.817Z,102627.84
2018-10-21T13:55:29.198Z,102617.80
2018-10-21T13:57:57.708Z,102623.74
2018-10-21T14:00:26.160Z,102612.71
2018-10-21T14:02:54.480Z,102613.95
2018-10-21T14:05:23.013Z,102613.95
2018-10-21T14:07:51.462Z,102605.36
2018-10-21T14:10:20.087Z,102608.41
2018-10-21T14:12:48.479Z,102610.89
2018-10-21T14:15:16.901Z,102602.30
2018-10-21T14:17:46.365Z,102597.60
2018-10-21T14:20:14.769Z,102604.34
2018-10-21T14:22:43.357Z,102607.56
2018-10-21T14:25:11.898Z,102597.91
2018-10-21T14:27:40.530Z,102597.41
2018-10-21T14:30:10.149Z,102585.12
2018-10-21T14:32:38.939Z,102586.05
2018-10-21T14:35:09.221Z,102592.59
2018-10-21T14:37:38.067Z,102587.28
2018-10-21T14:40:08.218Z,102590.03
2018-10-21T14:42:36.597Z,102579.13
2018-10-21T14:45:06.008Z,102580.72
2018-10-21T14:47:34.385Z,102576.65
2018-10-21T14:50:02.823Z,102577.23
2018-10-21T14:52:31.282Z,102567.53
2018-10-21T14:54:59.683Z,102566.71
2018-10-21T14:57:28.147Z,102564.14
2018-10-21T14:59:56.514Z,102559.13
2018-10-21T15:02:24.861Z,102555.66
2018-10-21T15:04:53.204Z,102557.50
2018-10-21T15:07:21.785Z,102558.69
2018-10-21T15:09:50.285Z,102554.33
2018-10-21T15:12:18.721Z,102561.28
2018-10-21T15:14:47.095Z,102558.31
2018-10-21T15:17:15.589Z,102552.41
2018-10-21T15:19:44.142Z,102552.55
2018-10-21T15:22:12.609Z,102545.84
2018-10-21T15:24:40.883Z,102550.20
2018-10-21T15:27:09.213Z,102546.05
2018-10-21T15:29:37.577Z,102545.70
2018-10-21T15:32:06.189Z,102540.23
2018-10-21T15:34:34.716Z,102551.48
2018-10-21T15:37:03.756Z,102545.44
2018-10-21T15:39:32.276Z,102545.44
2018-10-21T15:42:00.654Z,102543.39
2018-10-21T15:44:29.013Z,102544.44
2018-10-21T15:46:57.425Z,102540.33
2018-10-21T15:49:25.888Z,102548.73
2018-10-21T15:51:54.580Z,102543.00
2018-10-21T15:54:22.952Z,102542.59
2018-10-21T15:56:51.615Z,102547.91
2018-10-21T15:59:20.629Z,102542.49
2018-10-21T16:01:49.125Z,102539.53
2018-10-21T16:04:17.556Z,102550.14
2018-10-21T16:06:46.219Z,102547.75
2018-10-21T16:09:14.610Z,102543.45
2018-10-21T16:11:43.159Z,102549.07
2018-10-21T16:14:11.717Z,102549.56
2018-10-21T16:16:40.138Z,102542.72
2018-10-21T16:19:08.828Z,102539.42
2018-10-21T16:21:42.873Z,102534.55
2018-10-21T16:24:11.360Z,102540.27
2018-10-21T16:26:39.765Z,102544.03
2018-10-21T16:29:08.402Z,102552.63
2018-10-21T16:31:36.792Z,102541.70
2018-10-21T16:34:05.580Z,102545.17
2018-10-21T16:36:34.073Z,102551.02
2018-10-21T16:39:02.710Z,102548.56
2018-10-21T16:41:33.411Z,102551.02
2018-10-21T16:44:02.193Z,102552.95
2018-10-21T16:46:30.561Z,102552.00
2018-10-21T16:48:59.050Z,102554.34
2018-10-21T16:51:27.550Z,102551.60
2018-10-21T16:53:56.050Z,102550.22
2018-10-21T16:56:24.427Z,102548.13
2018-10-21T16:58:52.806Z,102552.26
2018-10-21T17:01:21.243Z,102554.72
2018-10-21T17:03:50.015Z,102551.07
2018-10-21T17:06:18.625Z,102553.53
2018-10-21T17:08:47.328Z,102551.60
2018-10-21T17:11:16.656Z,102552.22
2018-10-21T17:13:45.612Z,102552.52
2018-10-21T17:16:14.050Z,102556.72
2018-10-21T17:18:42.751Z,102556.70
2018-10-21T17:21:11.552Z,102558.08
2018-10-21T17:23:40.202Z,102560.80
2018-10-21T17:26:09.500Z,102556.80
2018-10-21T17:28:38.535Z,102551.49
2018-10-21T17:31:07.343Z,102566.67
2018-10-21T17:33:36.480Z,102562.43
2018-10-21T17:36:05.516Z,102554.41
2018-10-21T17:38:34.364Z,102558.08
2018-10-21T17:41:03.238Z,102557.38
2018-10-21T17:43:32.609Z,102555.73
2018-10-21T17:46:02.182Z,102558.33
2018-10-21T17:48:31.098Z,102551.89
2018-10-21T17:51:00.104Z,102553.02
2018-10-21T17:53:28.877Z,102546.75
2018-10-21T17:55:57.575Z,102544.80
2018-10-21T17:58:26.467Z,102539.57
2018-10-21T18:00:55.047Z,102539.77
2018-10-21T18:03:23.772Z,102522.41
2018-10-21T18:05:52.312Z,102529.62
2018-10-21T18:08:21.927Z,102531.05
2018-10-21T18:10:50.792Z,102531.78
2018-10-21T18:13:20.542Z,102530.12
2018-10-21T18:15:49.538Z,102526.87
2018-10-21T18:18:18.467Z,102528.09
2018-10-21T18:20:47.576Z,102527.98
2018-10-21T18:23:16.338Z,102528.55
2018-10-21T18:25:45.133Z,102538.75
2018-10-21T18:28:14.336Z,102531.29
2018-10-21T18:30:43.404Z,102530.07
2018-10-21T18:33:12.164Z,102528.23
2018-10-21T18:35:40.874Z,102521.28
2018-10-21T18:38:09.840Z,102522.83
2018-10-21T18:40:39.376Z,102512.70
2018-10-21T18:43:08.487Z,102511.89
2018-10-21T18:45:37.261Z,102516.64
2018-10-21T18:48:06.203Z,102509.75
2018-10-21T18:50:35.230Z,102509.23
2018-10-21T18:53:04.110Z,102515.68
2018-10-21T18:55:33.244Z,102511.98
2018-10-21T18:58:02.455Z,102520.36
2018-10-21T19:00:31.506Z,102523.02
2018-10-21T19:03:00.990Z,102517.70
2018-10-21T19:05:29.768Z,102520.02
2018-10-21T19:07:59.270Z,102524.42
2018-10-21T19:10:30.122Z,102524.00
2018-10-21T19:13:00.053Z,102527.48
2018-10-21T19:15:29.121Z,102536.47
2018-10-21T19:17:58.588Z,102533.67
2018-10-21T19:20:28.361Z,102528.50
2018-10-21T19:22:59.041Z,102524.87
2018-10-21T19:25:28.504Z,102527.73
2018-10-21T19:27:58.292Z,102528.53
2018-10-21T19:30:28.009Z,102523.02
2018-10-21T19:32:57.778Z,102520.84
2018-10-21T19:35:27.299Z,102515.58
2018-10-21T19:37:56.202Z,102517.51
2018-10-21T19:40:25.461Z,102514.23
2018-10-21T19:42:55.801Z,102511.27
2018-10-21T19:45:25.055Z,102514.26
2018-10-21T19:47:54.488Z,102510.05
2018-10-21T19:50:24.465Z,102501.37
2018-10-21T19:52:53.913Z,102511.77
2018-10-21T19:55:24.648Z,102509.73
2018-10-21T19:57:54.001Z,102514.83
2018-10-21T20:00:23.760Z,102514.43
2018-10-21T20:02:53.779Z,102515.87
2018-10-21T20:05:23.533Z,102514.34
2018-10-21T20:07:53.449Z,102508.37
2018-10-21T20:10:23.683Z,102506.17
2018-10-21T20:12:53.254Z,102511.16
2018-10-21T20:15:22.581Z,102513.39
2018-10-21T20:17:52.417Z,102509.26
2018-10-21T20:20:21.842Z,102509.34
2018-10-21T20:22:50.721Z,102509.96
2018-10-21T20:25:20.612Z,102502.68
2018-10-21T20:27:49.800Z,102507.93
2018-10-21T20:30:19.317Z,102511.86
2018-10-21T20:32:48.443Z,102510.59
2018-10-21T20:35:18.080Z,102511.44
2018-10-21T20:37:47.551Z,102515.36
2018-10-21T20:40:16.616Z,102509.31
2018-10-21T20:42:45.468Z,102516.69
2018-10-21T20:45:14.745Z,102506.15
2018-10-21T20:47:44.215Z,102504.54
2018-10-21T20:50:13.422Z,102504.73
2018-10-21T20:52:42.882Z,102505.42
2018-10-21T20:55:11.780Z,102503.12
2018-10-21T20:57:40.681Z,102505.22
2018-10-21T21:00:09.773Z,102499.34
2018-10-21T21:02:38.561Z,102506.27
2018-10-21T21:05:10.210Z,102510.22
2018-10-21T21:07:39.295Z,102504.94
2018-10-21T21:10:08.853Z,102505.16
2018-10-21T21:12:37.740Z,102507.63
2018-10-21T21:15:07.186Z,102498.33
2018-10-21T21:17:35.849Z,102499.48
2018-10-21T21:20:04.258Z,102491.04
2018-10-21T21:22:32.694Z,102497.20
2018-10-21T21:25:01.200Z,102500.02
2018-10-21T21:27:29.571Z,102498.89
2018-10-21T21:29:58.716Z,102496.66
2018-10-21T21:32:27.096Z,102498.58
2018-10-21T21:34:55.629Z,102500.53
2018-10-21T21:37:23.967Z,102496.58
2018-10-21T21:39:52.399Z,102494.43
2018-10-21T21:42:20.881Z,102487.70
2018-10-21T21:44:49.241Z,102492.56
2018-10-21T21:47:17.563Z,102494.55
2018-10-21T21:49:46.438Z,102499.20
2018-10-21T21:52:14.812Z,102506.95
2018-10-21T21:54:43.197Z,102504.84
2018-10-21T21:57:11.498Z,102505.97
2018-10-21T21:59:39.957Z,102504.34
2018-10-21T22:02:08.541Z,102500.52
2018-10-21T22:04:36.850Z,102509.92
2018-10-21T22:07:05.663Z,102511.13
2018-10-21T22:09:34.510Z,102516.72
2018-10-21T22:12:02.806Z,102513.67
2018-10-21T22:14:31.143Z,102511.72
2018-10-21T22:16:59.561Z,102509.70
2018-10-21T22:19:27.981Z,102512.23
2018-10-21T22:21:56.315Z,102509.43
2018-10-21T22:24:24.856Z,102511.96
2018-10-21T22:26:53.197Z,102514.06
2018-10-21T22:29:21.558Z,102500.99
2018-10-21T22:31:50.082Z,102486.75
2018-10-21T22:34:18.961Z,102489.52
2018-10-21T22:36:47.316Z,102480.61
2018-10-21T22:39:15.720Z,102475.58
2018-10-21T22:41:44.183Z,102483.97
2018-10-21T22:44:12.590Z,102478.34
2018-10-21T22:46:41.051Z,102479.91
2018-10-21T22:49:10.543Z,102478.23
2018-10-21T22:51:38.870Z,102477.33
2018-10-21T22:54:07.325Z,102482.84
2018-10-21T22:56:35.634Z,102478.69
2018-10-21T22:59:04.032Z,102474.77
2018-10-21T23:01:32.372Z,102471.63
2018-10-21T23:04:00.672Z,102473.16
2018-10-21T23:06:29.014Z,102480.25
2018-10-21T23:08:57.340Z,102475.61
2018-10-21T23:11:25.745Z,102471.63
2018-10-21T23:13:54.023Z,102476.74
2018-10-21T23:16:22.341Z,102468.98
2018-10-21T23:18:50.691Z,102469.09
2018-10-21T23:21:18.963Z,102459.06
2018-10-21T23:23:47.379Z,102457.55
2018-10-21T23:26:15.735Z,102456.44
2018-10-21T23:28:44.011Z,102454.77
2018-10-21T23:31:12.323Z,102450.80
2018-10-21T23:33:40.626Z,102450.80
2018-10-21T23:36:08.955Z,102447.31
2018-10-21T23:38:37.360Z,102452.85
2018-10-21T23:41:05.786Z,102447.52
2018-10-21T23:43:34.080Z,102447.88
2018-10-21T23:46:02.411Z,102448.76
2018-10-21T23:48:31.774Z,102444.47
2018-10-21T23:51:00.142Z,102443.27
2018-10-21T23:53:28.408Z,102437.09
2018-10-21T23:55:56.738Z,102432.61
2018-10-21T23:58:25.094Z,102438.11
